Law, Texas
Current Conditions -  °F | °C
As of 2:53 PM on Tuesday 25 Nov 2014 (Local Time) from KCLL Reporting Station
Clear Clear  
Wind Chill: 64°   Ceiling: Unl
Heat Index: 64°   Visibility: 10mi
Dew Point: 26°   Wind: 0mph
Humidity: 24%   Direction: NA
Pressure: 30.23"   Gusts: NA
Location:  30.6361°N, 96.3666°W
Report Text: KCLL 252053Z 00000KT 10SM CLR 18/M03 A3023 RMK AO2 SLP234 T01781033 56024
Loading
Personal Weather Stations






























Interactive Weather Map New forecast layout! Learn more

10-Day Weather Forecast

Advertisements
Track Severe Weather on mobile